Time;durP1;ratioP1;P1;durP2;ratioP2;P2;SDS_P1;SDS_P2;PMS_P1;PMS_P2;Temp;Humidity;BMP_temperature;BMP_pressure;BME280_temperature;BME280_humidity;BME280_pressure;Samples;Min_cycle;Max_cycle;Signal;HPM_P1;HPM_P2
2024/01/13 00:02:06;;;;;;;47.65;32.97;;;;;;;0.63;100.00;102723.19;5025597;28;20072;-77
2024/01/13 00:04:32;;;;;;;42.13;30.35;;;;;;;0.66;100.00;102731.09;5024466;28;20053;-78
2024/01/13 00:06:57;;;;;;;46.25;30.45;;;;;;;0.62;100.00;102730.13;5026003;28;20044;-78
2024/01/13 00:09:23;;;;;;;51.17;30.30;;;;;;;0.65;100.00;102734.56;5022927;28;20164;-79
2024/01/13 00:11:48;;;;;;;51.45;33.53;;;;;;;0.66;100.00;102734.59;5025403;28;20037;-77
2024/01/13 00:14:13;;;;;;;46.20;32.25;;;;;;;0.71;100.00;102734.66;5024123;28;20025;-78
2024/01/13 00:16:39;;;;;;;44.30;31.58;;;;;;;0.71;100.00;102729.44;5024614;28;20072;-80
2024/01/13 00:19:05;;;;;;;44.40;30.63;;;;;;;0.65;100.00;102713.59;5025331;28;20324;-78
2024/01/13 00:21:30;;;;;;;40.58;28.02;;;;;;;0.70;100.00;102719.81;5025153;28;20108;-79
2024/01/13 00:23:56;;;;;;;44.20;30.15;;;;;;;0.72;100.00;102713.75;5025916;28;20555;-79
2024/01/13 00:26:22;;;;;;;41.33;29.02;;;;;;;0.73;100.00;102709.41;5024963;28;20037;-77
2024/01/13 00:28:47;;;;;;;38.28;27.70;;;;;;;0.72;100.00;102713.75;5025661;28;20022;-78
2024/01/13 00:31:12;;;;;;;52.00;30.48;;;;;;;0.73;100.00;102710.28;5025212;28;20048;-79
2024/01/13 00:33:39;;;;;;;40.50;28.00;;;;;;;0.64;100.00;102699.63;5024959;28;20399;-78
2024/01/13 00:36:05;;;;;;;39.60;28.15;;;;;;;0.64;100.00;102703.97;5025841;28;20029;-77
2024/01/13 00:38:30;;;;;;;40.05;27.40;;;;;;;0.70;100.00;102698.84;5024305;28;20036;-78
2024/01/13 00:40:55;;;;;;;39.20;27.23;;;;;;;0.61;100.00;102685.56;5025283;28;20081;-78
2024/01/13 00:43:21;;;;;;;38.55;27.63;;;;;;;0.69;100.00;102697.09;5023908;28;20069;-77
2024/01/13 00:45:46;;;;;;;40.05;27.25;;;;;;;0.70;100.00;102693.59;5024277;28;20033;-78
2024/01/13 00:48:11;;;;;;;45.65;27.95;;;;;;;0.67;100.00;102689.19;5025288;28;20079;-77
2024/01/13 00:50:37;;;;;;;34.35;25.75;;;;;;;0.70;100.00;102688.34;5025234;28;20032;-78
2024/01/13 00:53:02;;;;;;;38.70;26.45;;;;;;;0.66;100.00;102671.69;5024633;28;20025;-79
2024/01/13 00:55:27;;;;;;;38.13;26.55;;;;;;;0.69;100.00;102670.88;5019848;28;20076;-78
2024/01/13 00:57:53;;;;;;;37.60;26.60;;;;;;;0.70;100.00;102673.50;5024249;28;20060;-77
2024/01/13 01:00:18;;;;;;;33.65;24.88;;;;;;;0.72;100.00;102684.03;5023060;28;20045;-79
2024/01/13 01:02:43;;;;;;;36.33;25.55;;;;;;;0.72;100.00;102677.06;5024811;28;20063;-79
2024/01/13 01:05:09;;;;;;;38.25;26.83;;;;;;;0.77;100.00;102682.38;5025596;28;20029;-78
2024/01/13 01:07:34;;;;;;;35.97;26.02;;;;;;;0.72;100.00;102656.09;5018750;28;20021;-79
2024/01/13 01:10:00;;;;;;;33.30;25.50;;;;;;;0.73;100.00;102662.22;5024247;28;20545;-76
2024/01/13 01:12:26;;;;;;;36.50;25.95;;;;;;;0.72;100.00;102663.09;5023384;28;20120;-78
2024/01/13 01:14:51;;;;;;;33.17;24.42;;;;;;;0.68;100.00;102648.16;5024664;28;20120;-78
2024/01/13 01:17:16;;;;;;;32.97;23.00;;;;;;;0.73;100.00;102664.84;5024976;28;20025;-80
2024/01/13 01:19:42;;;;;;;31.92;24.40;;;;;;;0.79;100.00;102661.44;5019472;28;20454;-78
2024/01/13 01:22:07;;;;;;;31.08;23.15;;;;;;;0.80;100.00;102664.09;5024810;28;20497;-80
2024/01/13 01:24:33;;;;;;;30.25;22.13;;;;;;;0.75;100.00;102660.50;5023768;28;20037;-78
2024/01/13 01:26:58;;;;;;;25.40;21.58;;;;;;;0.79;100.00;102659.69;5024825;28;20539;-81
2024/01/13 01:29:23;;;;;;;28.05;21.08;;;;;;;0.72;100.00;102650.84;5024151;28;20040;-80
2024/01/13 01:31:49;;;;;;;24.63;21.05;;;;;;;0.77;100.00;102650.06;5023726;28;20442;-80
2024/01/13 01:34:14;;;;;;;28.50;21.92;;;;;;;0.73;100.00;102650.00;5022987;28;20040;-80
2024/01/13 01:36:40;;;;;;;32.03;22.25;;;;;;;0.73;100.00;102644.75;5011488;28;20028;-80
2024/01/13 01:39:05;;;;;;;27.05;21.98;;;;;;;0.77;100.00;102647.44;5019516;28;20083;-78
2024/01/13 01:41:32;;;;;;;30.02;22.60;;;;;;;0.74;100.00;102638.66;5020899;28;20048;-79
2024/01/13 01:43:57;;;;;;;30.33;24.08;;;;;;;0.78;100.00;102622.97;5024348;28;20018;-78
2024/01/13 01:46:23;;;;;;;30.80;23.70;;;;;;;0.79;100.00;102630.88;5024341;28;20037;-79
2024/01/13 01:48:55;;;;;;;31.67;23.90;;;;;;;0.81;100.00;102631.78;5023742;28;20105;-80
2024/01/13 01:51:21;;;;;;;34.70;25.58;;;;;;;0.81;100.00;102629.16;5021752;28;20029;-80
2024/01/13 01:53:47;;;;;;;30.48;24.85;;;;;;;0.77;100.00;102637.84;5024610;28;20053;-80
2024/01/13 01:56:17;;;;;;;31.90;24.02;;;;;;;0.79;100.00;102636.09;5023861;28;20029;-79
2024/01/13 01:58:43;;;;;;;29.83;24.02;;;;;;;0.74;100.00;102629.91;5022788;28;20047;-80
2024/01/13 02:01:10;;;;;;;28.30;23.00;;;;;;;0.77;100.00;102626.47;5017807;28;20048;-81
2024/01/13 02:03:36;;;;;;;27.08;21.80;;;;;;;0.80;100.00;102632.66;5023825;28;20099;-81
2024/01/13 02:06:02;;;;;;;25.95;21.02;;;;;;;0.81;100.00;102628.28;5021736;28;20163;-80
2024/01/13 02:08:28;;;;;;;24.35;20.05;;;;;;;0.79;100.00;102623.00;5023496;28;20029;-77
2024/01/13 02:11:00;;;;;;;24.90;20.40;;;;;;;0.80;100.00;102624.78;5022185;28;20518;-77
2024/01/13 02:13:25;;;;;;;26.55;20.58;;;;;;;0.77;100.00;102610.75;5023501;28;20032;-80
2024/01/13 02:15:51;;;;;;;23.98;21.23;;;;;;;0.83;100.00;102611.72;5024176;28;20049;-81
2024/01/13 02:18:16;;;;;;;26.50;22.77;;;;;;;0.84;100.00;102610.00;5023409;28;20557;-79
2024/01/13 02:20:41;;;;;;;26.33;21.67;;;;;;;0.87;100.00;102617.91;5021633;28;20070;-79
2024/01/13 02:23:07;;;;;;;27.73;23.23;;;;;;;0.81;100.00;102597.72;5025031;28;20048;-78
2024/01/13 02:25:32;;;;;;;26.90;23.75;;;;;;;0.84;100.00;102592.53;5023400;28;20060;-80
2024/01/13 02:27:57;;;;;;;25.85;22.73;;;;;;;0.81;100.00;102589.84;5040494;28;20026;-78
2024/01/13 02:30:23;;;;;;;27.45;24.08;;;;;;;0.88;100.00;102594.34;5043519;28;20051;-77
2024/01/13 02:32:48;;;;;;;28.13;23.98;;;;;;;0.84;100.00;102586.41;5040988;28;20102;-77
2024/01/13 02:35:13;;;;;;;28.27;24.13;;;;;;;0.85;100.00;102589.03;5042983;28;20037;-77
2024/01/13 02:37:40;;;;;;;26.70;23.20;;;;;;;0.90;100.00;102583.88;5038731;28;20021;-77
2024/01/13 02:40:09;;;;;;;27.80;22.90;;;;;;;0.87;100.00;102582.06;5031597;28;20044;-79
2024/01/13 02:42:34;;;;;;;24.98;21.80;;;;;;;0.82;100.00;102580.25;5028266;28;20047;-79
2024/01/13 02:45:00;;;;;;;25.92;22.98;;;;;;;0.76;100.00;102567.94;5028443;28;20108;-79
2024/01/13 02:47:40;;;;;;;24.65;21.88;;;;;;;0.81;100.00;102570.63;5021871;28;20025;-80
2024/01/13 02:50:06;;;;;;;26.00;23.20;;;;;;;0.83;100.00;102572.38;5021683;28;20041;-80
2024/01/13 02:52:31;;;;;;;26.40;23.48;;;;;;;0.87;100.00;102571.59;5018328;28;20051;-80
2024/01/13 02:54:57;;;;;;;25.95;23.17;;;;;;;0.89;100.00;102574.25;5023458;28;20487;-80
2024/01/13 02:57:22;;;;;;;26.52;23.63;;;;;;;0.91;100.00;102576.03;5020668;28;20691;-79
2024/01/13 02:59:47;;;;;;;25.55;22.75;;;;;;;0.91;100.00;102562.03;5022250;28;20040;-80
2024/01/13 03:02:13;;;;;;;26.23;23.20;;;;;;;0.93;100.00;102566.47;5021885;28;20522;-78
2024/01/13 03:04:38;;;;;;;23.35;20.65;;;;;;;0.97;100.00;102564.78;5022778;28;20099;-80
2024/01/13 03:07:04;;;;;;;24.70;22.02;;;;;;;0.94;100.00;102557.72;5022522;28;20047;-79
2024/01/13 03:09:30;;;;;;;24.52;21.83;;;;;;;0.94;100.00;102549.00;5023307;28;20452;-79
2024/01/13 03:11:56;;;;;;;24.92;22.30;;;;;;;0.91;100.00;102549.81;5021716;28;20120;-79
2024/01/13 03:14:21;;;;;;;23.77;21.25;;;;;;;0.89;100.00;102542.78;5020888;28;20136;-80
2024/01/13 03:16:47;;;;;;;24.48;21.90;;;;;;;0.86;100.00;102537.50;5022573;28;20438;-79
2024/01/13 03:19:13;;;;;;;24.10;21.50;;;;;;;0.86;100.00;102541.00;5013299;28;20105;-80
2024/01/13 03:21:39;;;;;;;24.40;21.35;;;;;;;0.90;100.00;102536.69;5020251;28;20047;-79
2024/01/13 03:24:04;;;;;;;24.02;21.55;;;;;;;0.87;100.00;102529.66;5020067;28;20033;-79
2024/01/13 03:26:29;;;;;;;23.15;20.60;;;;;;;0.92;100.00;102533.25;5026395;28;20099;-78
2024/01/13 03:28:55;;;;;;;24.70;22.08;;;;;;;0.94;100.00;102523.66;5020097;28;20030;-81
2024/01/13 03:31:20;;;;;;;23.13;20.10;;;;;;;0.90;100.00;102506.09;5025290;28;20496;-78
2024/01/13 03:33:46;;;;;;;21.88;19.35;;;;;;;0.94;100.00;102504.41;5023599;28;20029;-78
2024/01/13 03:36:11;;;;;;;23.10;20.55;;;;;;;0.90;100.00;102497.38;5025568;28;20309;-79
2024/01/13 03:38:37;;;;;;;21.85;19.55;;;;;;;0.93;100.00;102506.16;5023406;28;20574;-78
2024/01/13 03:41:03;;;;;;;22.30;19.90;;;;;;;0.92;100.00;102503.50;5025858;28;20030;-79
2024/01/13 03:43:28;;;;;;;21.15;19.05;;;;;;;0.92;100.00;102506.13;5025593;28;20025;-80
2024/01/13 03:45:53;;;;;;;21.67;18.95;;;;;;;0.91;100.00;102494.75;5024844;28;20446;-79
2024/01/13 03:48:19;;;;;;;20.58;18.27;;;;;;;0.92;100.00;102496.53;5025704;28;20036;-81
2024/01/13 03:50:44;;;;;;;19.48;17.55;;;;;;;0.93;100.00;102484.31;5027086;28;20032;-81
2024/01/13 03:53:10;;;;;;;19.95;17.33;;;;;;;0.94;100.00;102486.94;5023757;28;20029;-80
2024/01/13 03:55:35;;;;;;;17.65;15.90;;;;;;;0.96;100.00;102490.50;5012490;28;20033;-80
2024/01/13 03:58:04;;;;;;;16.17;14.57;;;;;;;0.99;100.00;102482.66;5026270;28;20109;-82
2024/01/13 04:00:29;;;;;;;16.58;14.85;;;;;;;1.01;100.00;102484.44;5024972;28;20061;-81
2024/01/13 04:02:56;;;;;;;14.75;13.25;;;;;;;0.99;100.00;102480.03;5025921;28;20060;-81
2024/01/13 04:05:21;;;;;;;15.38;13.80;;;;;;;1.00;100.00;102473.03;5023580;28;20060;-81
2024/01/13 04:07:46;;;;;;;14.77;13.13;;;;;;;0.94;100.00;102458.09;5024293;28;20061;-81
2024/01/13 04:10:12;;;;;;;16.27;13.73;;;;;;;1.04;100.00;102480.09;5023808;28;20021;-79
2024/01/13 04:12:39;;;;;;;15.30;12.90;;;;;;;1.01;100.00;102472.19;5023847;28;20494;-81
2024/01/13 04:15:05;;;;;;;14.02;12.63;;;;;;;1.04;100.00;102463.47;5024960;28;20021;-82
2024/01/13 04:17:32;;;;;;;14.60;12.80;;;;;;;1.05;100.00;102470.50;5026164;28;20107;-79
2024/01/13 04:19:57;;;;;;;14.43;12.43;;;;;;;0.98;100.00;102449.44;5024328;28;20245;-80
2024/01/13 04:22:22;;;;;;;14.32;12.90;;;;;;;1.04;100.00;102452.97;5027145;28;20032;-81
2024/01/13 04:24:48;;;;;;;14.23;11.95;;;;;;;1.02;100.00;102450.34;5027762;28;20095;-81
2024/01/13 04:27:13;;;;;;;13.15;11.85;;;;;;;0.96;100.00;102437.13;5019026;28;20033;-81
2024/01/13 04:29:38;;;;;;;13.10;11.77;;;;;;;1.01;100.00;102445.09;5024263;28;20541;-80
2024/01/13 04:32:04;;;;;;;13.30;11.90;;;;;;;0.92;100.00;102438.88;5025414;28;20056;-81
2024/01/13 04:34:29;;;;;;;13.20;11.90;;;;;;;0.94;100.00;102452.00;5025841;28;20060;-81
2024/01/13 04:36:55;;;;;;;14.07;12.60;;;;;;;0.89;100.00;102446.69;5023986;28;20021;-79
2024/01/13 04:39:20;;;;;;;14.40;12.55;;;;;;;0.91;100.00;102442.31;5023830;28;20311;-80
2024/01/13 04:41:45;;;;;;;13.63;12.20;;;;;;;0.88;100.00;102437.06;5022445;28;20033;-81
2024/01/13 04:44:11;;;;;;;14.25;12.80;;;;;;;0.84;100.00;102439.63;5026212;28;20033;-81
2024/01/13 04:46:36;;;;;;;18.48;15.07;;;;;;;0.86;100.00;102443.13;5022837;28;20033;-79
2024/01/13 04:49:02;;;;;;;15.60;13.68;;;;;;;0.82;100.00;102447.44;5026731;28;20068;-79
2024/01/13 04:51:27;;;;;;;16.48;13.70;;;;;;;0.87;100.00;102455.38;5022967;28;20052;-78
2024/01/13 04:53:53;;;;;;;16.60;14.23;;;;;;;0.82;100.00;102439.56;5025640;28;20083;-81
2024/01/13 04:56:19;;;;;;;16.80;15.05;;;;;;;0.84;100.00;102444.84;5029196;28;20021;-79
2024/01/13 04:58:44;;;;;;;16.48;14.80;;;;;;;0.89;100.00;102440.56;5030461;28;20100;-78
2024/01/13 05:01:09;;;;;;;20.25;15.68;;;;;;;0.81;100.00;102426.47;5024048;28;20041;-78
2024/01/13 05:03:35;;;;;;;19.60;15.95;;;;;;;0.87;100.00;102429.16;5019000;28;20109;-79
2024/01/13 05:06:02;;;;;;;19.98;15.90;;;;;;;0.86;100.00;102430.91;5018408;28;20026;-80
2024/01/13 05:08:27;;;;;;;21.92;16.50;;;;;;;0.83;100.00;102428.22;5035484;28;20029;-79
2024/01/13 05:10:53;;;;;;;19.40;16.92;;;;;;;0.88;100.00;102436.16;5040044;28;20064;-78
2024/01/13 05:13:18;;;;;;;18.98;17.00;;;;;;;0.81;100.00;102423.84;5045519;28;20032;-78
2024/01/13 05:15:43;;;;;;;19.13;17.13;;;;;;;0.80;100.00;102420.34;5044631;28;20006;-78
2024/01/13 05:18:09;;;;;;;19.90;17.33;;;;;;;0.77;100.00;102420.28;5045345;28;20147;-78
2024/01/13 05:20:34;;;;;;;21.98;18.08;;;;;;;0.81;100.00;102427.34;5044746;28;20086;-78
2024/01/13 05:23:00;;;;;;;21.98;18.70;;;;;;;0.79;100.00;102423.78;5035432;28;20033;-77
2024/01/13 05:25:25;;;;;;;21.83;18.80;;;;;;;0.77;100.00;102417.66;5033212;28;20017;-78
2024/01/13 05:27:50;;;;;;;23.65;18.25;;;;;;;0.72;100.00;102414.09;5022357;28;20065;-80
2024/01/13 05:30:16;;;;;;;23.98;20.50;;;;;;;0.77;100.00;102428.16;5028397;28;20033;-80
2024/01/13 05:32:41;;;;;;;26.63;20.83;;;;;;;0.75;100.00;102424.59;5026145;28;20052;-78
2024/01/13 05:35:07;;;;;;;25.77;21.05;;;;;;;0.73;100.00;102428.97;5025268;28;20030;-81
2024/01/13 05:37:33;;;;;;;26.13;21.60;;;;;;;0.76;100.00;102421.16;5023690;28;20579;-80
2024/01/13 05:39:59;;;;;;;28.73;21.90;;;;;;;0.74;100.00;102421.09;5021922;28;20207;-80
2024/01/13 05:42:25;;;;;;;29.73;24.00;;;;;;;0.70;100.00;102416.69;5024297;28;20056;-80
2024/01/13 05:44:50;;;;;;;34.08;26.80;;;;;;;0.73;100.00;102411.50;5024119;28;20500;-80
2024/01/13 05:47:16;;;;;;;35.45;27.60;;;;;;;0.67;100.00;102405.25;5023113;28;20018;-79
2024/01/13 05:49:42;;;;;;;37.38;28.80;;;;;;;0.72;100.00;102414.97;5012540;28;20487;-79
2024/01/13 05:52:10;;;;;;;38.95;31.55;;;;;;;0.71;100.00;102407.97;5024171;28;20045;-80
2024/01/13 05:54:38;;;;;;;43.42;32.75;;;;;;;0.70;100.00;102407.94;5025434;28;20072;-80
2024/01/13 05:57:03;;;;;;;42.60;33.25;;;;;;;0.68;100.00;102405.31;5024351;28;20026;-79
2024/01/13 05:59:29;;;;;;;44.20;34.75;;;;;;;0.71;100.00;102404.44;5025831;28;20651;-79
2024/01/13 06:01:54;;;;;;;48.30;36.65;;;;;;;0.69;100.00;102408.81;5024336;28;20058;-80
2024/01/13 06:04:20;;;;;;;47.10;35.80;;;;;;;0.69;100.00;102411.44;5025367;28;20036;-78
2024/01/13 06:06:45;;;;;;;48.42;36.72;;;;;;;0.70;100.00;102415.81;5024321;28;20053;-79
2024/01/13 06:09:11;;;;;;;48.75;36.97;;;;;;;0.67;100.00;102413.13;5022114;28;20487;-81
2024/01/13 06:11:43;;;;;;;52.15;39.25;;;;;;;0.72;100.00;102430.69;5024591;28;20269;-82
2024/01/13 06:14:08;;;;;;;50.92;38.10;;;;;;;0.70;100.00;102421.03;5011064;28;20025;-80
2024/01/13 06:16:33;;;;;;;51.20;38.05;;;;;;;0.65;100.00;102412.22;5024611;28;20033;-78
2024/01/13 06:19:01;;;;;;;53.60;39.05;;;;;;;0.71;100.00;102421.09;5025269;28;20028;-81
2024/01/13 06:21:27;;;;;;;52.22;41.70;;;;;;;0.70;100.00;102421.03;5024849;28;20041;-80
2024/01/13 06:23:52;;;;;;;55.20;40.88;;;;;;;0.71;100.00;102409.69;5025229;28;20037;-80
2024/01/13 06:26:17;;;;;;;53.83;40.65;;;;;;;0.71;100.00;102407.06;5022074;28;20277;-80
2024/01/13 06:28:43;;;;;;;54.33;41.08;;;;;;;0.65;100.00;102396.50;5021679;28;20052;-78
2024/01/13 06:31:08;;;;;;;52.15;41.72;;;;;;;0.70;100.00;102386.97;5024370;28;20029;-80
2024/01/13 06:33:34;;;;;;;54.33;41.58;;;;;;;0.65;100.00;102373.81;5023616;28;20056;-80
2024/01/13 06:35:59;;;;;;;51.85;39.92;;;;;;;0.66;100.00;102367.69;5024260;28;20087;-80
2024/01/13 06:38:25;;;;;;;52.17;40.45;;;;;;;0.71;100.00;102362.53;5022624;28;20025;-79
2024/01/13 06:40:50;;;;;;;54.30;42.28;;;;;;;0.70;100.00;102368.63;5024067;28;20092;-76
2024/01/13 06:43:15;;;;;;;51.72;39.60;;;;;;;0.71;100.00;102359.91;5024456;28;20188;-78
2024/01/13 06:45:41;;;;;;;51.65;40.83;;;;;;;0.69;100.00;102351.16;5015446;28;20567;-79
2024/01/13 06:48:06;;;;;;;48.08;38.42;;;;;;;0.72;100.00;102356.44;5022591;28;20029;-79
2024/01/13 06:50:34;;;;;;;48.78;39.67;;;;;;;0.71;100.00;102363.44;5025106;28;20543;-77
2024/01/13 06:53:00;;;;;;;50.60;39.15;;;;;;;0.64;100.00;102356.34;5023743;28;20041;-78
2024/01/13 06:55:25;;;;;;;52.13;40.35;;;;;;;0.68;100.00;102359.88;5022521;28;20031;-77
2024/01/13 06:57:51;;;;;;;48.85;39.42;;;;;;;0.72;100.00;102359.94;5023371;28;20112;-77
2024/01/13 07:00:18;;;;;;;49.47;38.55;;;;;;;0.70;100.00;102360.75;5021335;28;20466;-78
2024/01/13 07:02:44;;;;;;;52.33;38.83;;;;;;;0.71;100.00;102359.91;5021764;28;20025;-78
2024/01/13 07:05:10;;;;;;;50.78;38.75;;;;;;;0.73;100.00;102353.84;5022886;28;20033;-79
2024/01/13 07:07:36;;;;;;;49.72;40.25;;;;;;;0.75;100.00;102340.75;5021124;28;20032;-78
2024/01/13 07:10:04;;;;;;;51.38;39.58;;;;;;;0.73;100.00;102326.75;5023981;28;20030;-78
2024/01/13 07:12:30;;;;;;;50.45;40.35;;;;;;;0.76;100.00;102341.66;5011232;28;20387;-79
2024/01/13 07:14:55;;;;;;;48.85;38.72;;;;;;;0.77;100.00;102323.31;5023740;28;20029;-80
2024/01/13 07:17:21;;;;;;;49.55;39.53;;;;;;;0.78;100.00;102318.94;5022497;28;20105;-81
2024/01/13 07:19:46;;;;;;;52.30;39.65;;;;;;;0.77;100.00;102323.31;5024931;28;20064;-80
2024/01/13 07:22:12;;;;;;;51.70;39.75;;;;;;;0.73;100.00;102300.53;5022560;28;20006;-78
2024/01/13 07:24:37;;;;;;;49.03;39.40;;;;;;;0.70;100.00;102283.03;5023294;28;20041;-80
2024/01/13 07:27:06;;;;;;;49.85;39.17;;;;;;;0.75;100.00;102296.19;5024481;28;20052;-79
2024/01/13 07:29:31;;;;;;;54.10;41.65;;;;;;;0.76;100.00;102290.09;5023412;28;20075;-81
2024/01/13 07:31:56;;;;;;;52.30;42.47;;;;;;;0.75;100.00;102277.84;5017613;28;20422;-79
2024/01/13 07:34:22;;;;;;;50.30;41.05;;;;;;;0.71;100.00;102286.53;5015227;28;20084;-79
2024/01/13 07:36:47;;;;;;;54.70;43.13;;;;;;;0.74;100.00;102284.81;5021940;28;20554;-80
2024/01/13 07:39:13;;;;;;;52.15;42.00;;;;;;;0.70;100.00;102280.41;5022945;28;20097;-80
2024/01/13 07:41:39;;;;;;;53.78;41.55;;;;;;;0.72;100.00;102280.44;5020432;28;20029;-79
2024/01/13 07:44:04;;;;;;;53.40;42.65;;;;;;;0.75;100.00;102285.69;5023729;28;20491;-80
2024/01/13 07:46:30;;;;;;;50.22;41.63;;;;;;;0.76;100.00;102287.47;5025361;28;20029;-79
2024/01/13 07:48:55;;;;;;;50.33;39.97;;;;;;;0.73;100.00;102290.94;5024980;28;20441;-78
2024/01/13 07:51:20;;;;;;;52.58;41.70;;;;;;;0.73;100.00;102287.44;5022871;28;20036;-77
2024/01/13 07:53:46;;;;;;;48.65;40.63;;;;;;;0.69;100.00;102283.00;5039585;28;20017;-77
2024/01/13 07:56:12;;;;;;;53.65;41.38;;;;;;;0.72;100.00;102273.47;5038293;28;20045;-77
2024/01/13 07:58:37;;;;;;;49.83;39.65;;;;;;;0.74;100.00;102266.47;5042975;28;20045;-77
2024/01/13 08:01:06;;;;;;;47.30;37.97;;;;;;;0.67;100.00;102246.31;5034792;28;20056;-79
2024/01/13 08:03:31;;;;;;;49.20;39.08;;;;;;;0.77;100.00;102259.53;5032332;28;20357;-77
2024/01/13 08:05:56;;;;;;;46.28;38.85;;;;;;;0.78;100.00;102245.56;5021884;28;20100;-80
2024/01/13 08:08:22;;;;;;;49.38;39.00;;;;;;;0.77;100.00;102234.19;5022652;28;20029;-80
2024/01/13 08:10:47;;;;;;;45.00;37.10;;;;;;;0.80;100.00;102233.38;5021668;28;20025;-78
2024/01/13 08:13:14;;;;;;;47.25;37.50;;;;;;;0.72;100.00;102235.91;5021560;28;20647;-80
2024/01/13 08:15:39;;;;;;;45.03;37.08;;;;;;;0.81;100.00;102250.84;5026278;28;20057;-78
2024/01/13 08:18:05;;;;;;;45.78;36.83;;;;;;;0.81;100.00;102241.25;5026158;28;20138;-76
2024/01/13 08:20:31;;;;;;;49.20;37.65;;;;;;;0.80;100.00;102226.38;5023341;28;20064;-77
2024/01/13 08:22:57;;;;;;;47.85;37.45;;;;;;;0.84;100.00;102227.31;5026239;28;20085;-79
2024/01/13 08:25:22;;;;;;;46.15;36.88;;;;;;;0.84;100.00;102216.81;5027875;28;20093;-78
2024/01/13 08:27:48;;;;;;;44.65;36.65;;;;;;;0.85;100.00;102245.66;5022894;28;20056;-78
2024/01/13 08:30:13;;;;;;;49.25;39.40;;;;;;;0.87;100.00;102245.66;5023184;28;20491;-78
2024/01/13 08:32:38;;;;;;;45.15;37.20;;;;;;;0.87;100.00;102225.56;5024791;28;20025;-78
2024/01/13 08:35:07;;;;;;;45.35;37.30;;;;;;;0.89;100.00;102207.25;5024979;28;20296;-77
2024/01/13 08:37:32;;;;;;;46.92;37.33;;;;;;;0.88;100.00;102208.09;5026538;28;20021;-77
2024/01/13 08:39:58;;;;;;;44.03;35.58;;;;;;;0.89;100.00;102208.13;5021764;28;20040;-78
2024/01/13 08:42:23;;;;;;;47.72;36.63;;;;;;;0.93;100.00;102220.41;5025168;28;20029;-78
2024/01/13 08:44:49;;;;;;;44.95;36.30;;;;;;;0.93;100.00;102215.16;5025678;28;20059;-78
2024/01/13 08:47:14;;;;;;;46.63;37.30;;;;;;;0.93;100.00;102204.69;5026038;28;20060;-78
2024/01/13 08:49:40;;;;;;;51.60;37.25;;;;;;;0.90;100.00;102209.88;5019784;28;20092;-77
2024/01/13 08:52:06;;;;;;;43.95;36.22;;;;;;;0.94;100.00;102222.16;5025072;28;20107;-77
2024/01/13 08:54:32;;;;;;;48.47;37.55;;;;;;;0.90;100.00;102212.50;5025645;28;20036;-77
2024/01/13 08:56:57;;;;;;;46.15;36.83;;;;;;;0.96;100.00;102230.03;5025170;28;20021;-76
2024/01/13 08:59:22;;;;;;;48.35;37.85;;;;;;;0.99;100.00;102235.31;5025415;28;20484;-78
2024/01/13 09:01:48;;;;;;;47.22;37.95;;;;;;;0.95;100.00;102228.28;5025640;28;20280;-77
2024/01/13 09:04:13;;;;;;;50.22;37.88;;;;;;;0.99;100.00;102233.56;5025174;28;20099;-79
2024/01/13 09:06:40;;;;;;;47.85;37.85;;;;;;;0.94;100.00;102221.28;5024074;28;20025;-78
2024/01/13 09:09:05;;;;;;;53.40;39.33;;;;;;;1.02;100.00;102224.00;5018598;28;20022;-77
2024/01/13 09:11:31;;;;;;;50.63;39.05;;;;;;;1.04;100.00;102228.38;5021140;28;20036;-77
2024/01/13 09:13:57;;;;;;;42.55;35.75;;;;;;;1.03;100.00;102233.59;5023544;28;20034;-77
2024/01/13 09:16:22;;;;;;;44.15;35.38;;;;;;;0.99;100.00;102222.19;5024559;28;20029;-78
2024/01/13 09:18:48;;;;;;;43.10;35.60;;;;;;;1.04;100.00;102233.59;5022778;28;20030;-76
2024/01/13 09:21:17;;;;;;;39.20;33.42;;;;;;;1.03;100.00;102230.97;5024325;28;20033;-78
2024/01/13 09:23:42;;;;;;;41.28;34.72;;;;;;;1.04;100.00;102240.59;5024624;28;20033;-77
2024/01/13 09:26:07;;;;;;;39.47;32.53;;;;;;;1.05;100.00;102239.75;5022993;28;20029;-79
2024/01/13 09:28:36;;;;;;;41.78;33.53;;;;;;;1.02;100.00;102235.34;5023387;28;20289;-77
2024/01/13 09:31:01;;;;;;;38.40;31.83;;;;;;;1.06;100.00;102228.41;5024942;28;20025;-77
2024/01/13 09:33:26;;;;;;;38.47;31.65;;;;;;;1.02;100.00;102235.34;5022927;28;20037;-78
2024/01/13 09:35:52;;;;;;;37.13;32.13;;;;;;;1.09;100.00;102225.81;5013077;28;20350;-77
2024/01/13 09:38:17;;;;;;;34.78;29.55;;;;;;;1.09;100.00;102217.97;5021966;28;20537;-78
2024/01/13 09:40:42;;;;;;;36.55;29.58;;;;;;;1.09;100.00;102215.34;5018822;28;20161;-77
2024/01/13 09:43:21;;;;;;;35.35;29.00;;;;;;;1.12;100.00;102223.22;5022625;28;20044;-76
2024/01/13 09:45:49;;;;;;;34.72;29.48;;;;;;;1.12;100.00;102220.59;5022553;28;20040;-78
2024/01/13 09:48:18;;;;;;;33.90;30.25;;;;;;;1.09;100.00;102223.19;5022191;28;20494;-78
2024/01/13 09:50:47;;;;;;;31.65;28.00;;;;;;;1.14;100.00;102222.38;5021801;28;20047;-77
2024/01/13 09:53:26;;;;;;;34.92;27.80;;;;;;;1.14;100.00;102214.50;5023248;28;20060;-78
2024/01/13 09:55:57;;;;;;;33.00;28.13;;;;;;;1.12;100.00;102207.47;5018164;28;20047;-77
2024/01/13 09:58:23;;;;;;;34.22;28.48;;;;;;;1.17;100.00;102213.63;5020822;28;20503;-77
2024/01/13 10:00:53;;;;;;;30.65;27.33;;;;;;;1.16;100.00;102204.91;5023587;28;20049;-76
2024/01/13 10:03:18;;;;;;;31.55;27.55;;;;;;;1.19;100.00;102196.19;5021963;28;20079;-76
2024/01/13 10:05:44;;;;;;;29.30;26.00;;;;;;;1.19;100.00;102196.19;5019972;28;20029;-76
2024/01/13 10:08:10;;;;;;;29.85;26.13;;;;;;;1.19;100.00;102185.69;5020503;28;20517;-76
2024/01/13 10:10:37;;;;;;;29.83;25.65;;;;;;;1.20;100.00;102190.94;5018454;28;20040;-78
2024/01/13 10:13:06;;;;;;;28.33;25.33;;;;;;;1.23;100.00;102204.09;5018584;28;20024;-76
2024/01/13 10:15:34;;;;;;;28.40;25.40;;;;;;;1.27;100.00;102205.00;5019677;28;20124;-76
2024/01/13 10:18:00;;;;;;;28.70;24.98;;;;;;;1.27;100.00;102197.13;5021024;28;20116;-77
2024/01/13 10:20:26;;;;;;;27.70;24.80;;;;;;;1.26;100.00;102197.13;5020714;28;20029;-79
2024/01/13 10:22:51;;;;;;;28.90;25.30;;;;;;;1.29;100.00;102207.63;5013991;28;20083;-78
2024/01/13 10:25:16;;;;;;;30.20;26.92;;;;;;;1.31;100.00;102195.44;5022859;28;20029;-76
2024/01/13 10:27:44;;;;;;;30.20;25.55;;;;;;;1.32;100.00;102200.69;5027454;28;20334;-76
2024/01/13 10:30:10;;;;;;;29.63;26.35;;;;;;;1.32;100.00;102192.81;5035761;28;20091;-74
2024/01/13 10:32:36;;;;;;;29.70;26.40;;;;;;;1.33;100.00;102188.44;5021432;28;20375;-74
2024/01/13 10:35:01;;;;;;;30.42;26.20;;;;;;;1.34;100.00;102185.84;5023666;28;20026;-76
2024/01/13 10:37:27;;;;;;;30.20;25.63;;;;;;;1.36;100.00;102181.47;5022746;28;20684;-75
2024/01/13 10:39:54;;;;;;;29.73;26.05;;;;;;;1.39;100.00;102184.13;5023463;28;20134;-76
2024/01/13 10:42:25;;;;;;;29.45;25.58;;;;;;;1.43;100.00;102182.41;5021495;28;20438;-75
2024/01/13 10:44:57;;;;;;;30.55;27.20;;;;;;;1.43;100.00;102164.06;5030098;28;20158;-75
2024/01/13 10:47:29;;;;;;;29.40;26.25;;;;;;;1.41;100.00;102147.41;5014746;28;20022;-74
2024/01/13 10:49:55;;;;;;;29.83;26.38;;;;;;;1.45;100.00;102152.69;5023828;28;20099;-76
2024/01/13 10:52:29;;;;;;;31.40;27.77;;;;;;;1.48;100.00;102155.34;5020789;28;20117;-75
2024/01/13 10:54:55;;;;;;;;;;;;;;;1.53;100.00;102158.00;5020235;28;20610;-76
2024/01/13 10:57:22;;;;;;;32.75;29.23;;;;;;;1.46;100.00;102148.31;5023885;28;19917;-75
2024/01/13 10:59:50;;;;;;;33.08;27.42;;;;;;;1.48;100.00;102150.09;5021909;28;20045;-75
2024/01/13 11:02:16;;;;;;;30.77;27.50;;;;;;;1.49;100.00;102151.84;5018984;28;20069;-77
2024/01/13 11:04:44;;;;;;;31.08;27.52;;;;;;;1.49;100.00;102140.47;5016716;28;20033;-77